Time;durP1;ratioP1;P1;durP2;ratioP2;P2;SDS_P1;SDS_P2;PMS_P1;PMS_P2;Temp;Humidity;BMP_temperature;BMP_pressure;BME280_temperature;BME280_humidity;BME280_pressure;Samples;Min_cycle;Max_cycle;Signal;HPM_P1;HPM_P2
2022/08/22 00:02:33;;;;;;;8.77;2.58;;;19.50;81.30;19.70;99440.00;;;;5013406;28;87370;-67
2022/08/22 00:05:28;;;;;;;6.35;2.30;;;19.50;81.20;19.70;99437.00;;;;5011102;28;87172;-67
2022/08/22 00:08:33;;;;;;;9.07;2.60;;;19.50;81.10;19.70;99441.00;;;;5009648;28;88821;-67
2022/08/22 00:11:24;;;;;;;10.27;2.47;;;19.50;81.10;19.70;99438.00;;;;5016787;28;87509;-66
2022/08/22 00:14:29;;;;;;;5.95;2.58;;;19.50;81.30;19.70;99448.00;;;;5015946;28;87303;-67
2022/08/22 00:17:32;;;;;;;6.38;2.38;;;19.40;81.10;19.60;99440.00;;;;5010529;28;86980;-66
2022/08/22 00:20:25;;;;;;;6.35;2.55;;;19.40;81.10;19.60;99441.00;;;;5020250;28;87657;-67
2022/08/22 00:23:31;;;;;;;7.10;2.30;;;19.40;81.20;19.60;99453.00;;;;4988183;28;88055;-66
2022/08/22 00:26:08;;;;;;;8.45;2.53;;;19.40;81.30;19.60;99445.00;;;;5018993;28;88145;-66
2022/08/22 00:28:59;;;;;;;9.48;2.67;;;19.50;81.30;19.60;99444.00;;;;5020613;28;87351;-67
2022/08/22 00:31:55;;;;;;;8.20;2.47;;;19.40;81.50;19.60;99447.00;;;;5009593;28;87675;-66
2022/08/22 00:35:14;;;;;;;5.07;2.60;;;19.40;81.40;19.60;99450.00;;;;5018908;28;87216;-67
2022/08/22 00:38:27;;;;;;;6.28;2.80;;;19.40;81.60;19.60;99449.00;;;;5017157;28;87031;-66
2022/08/22 00:41:05;;;;;;;8.48;3.13;;;19.40;81.90;19.60;99444.00;;;;5007337;28;89427;-67
2022/08/22 00:44:22;;;;;;;8.38;2.90;;;19.40;82.30;19.60;99458.00;;;;5015238;28;87459;-67
2022/08/22 00:47:15;;;;;;;11.35;3.00;;;19.30;82.60;19.50;99449.00;;;;4982096;28;87580;-67
2022/08/22 00:50:21;;;;;;;11.30;2.70;;;19.30;82.80;19.50;99457.00;;;;5010082;28;87278;-67
2022/08/22 00:53:23;;;;;;;5.97;2.72;;;19.20;83.40;19.40;99454.00;;;;5021532;28;87523;-68
2022/08/22 00:56:17;;;;;;;6.25;2.75;;;19.20;83.70;19.40;99452.00;;;;4988522;28;90041;-67
2022/08/22 00:59:02;;;;;;;8.70;2.60;;;;;19.30;99478.00;;;;5020993;28;88242;-67
2022/08/22 01:01:37;;;;;;;7.32;3.00;;;19.10;84.10;19.30;99467.00;;;;5020992;28;87068;-67
2022/08/22 01:04:38;;;;;;;8.20;3.40;;;19.10;84.00;19.30;99471.00;;;;5014514;28;87065;-67
2022/08/22 01:07:39;;;;;;;8.95;3.88;;;19.10;84.70;19.30;99469.00;;;;5004733;28;88735;-67
2022/08/22 01:11:08;;;;;;;8.80;3.13;;;19.10;86.10;19.20;99480.00;;;;5017868;28;87918;-67
2022/08/22 01:14:05;;;;;;;9.35;3.45;;;18.90;87.50;19.10;99468.00;;;;4957030;28;87139;-67
2022/08/22 01:17:17;;;;;;;8.77;3.28;;;18.80;88.00;19.00;99470.00;;;;5014322;28;86244;-67
2022/08/22 01:20:26;;;;;;;7.93;3.53;;;18.80;88.40;19.00;99468.00;;;;5003435;28;87652;-67
2022/08/22 01:23:42;;;;;;;6.30;3.75;;;18.70;89.90;18.80;99459.00;;;;5019766;28;87407;-67
2022/08/22 01:26:38;;;;;;;9.13;3.42;;;18.70;89.30;18.80;99462.00;;;;5009145;28;88099;-61
2022/08/22 01:29:16;;;;;;;14.68;3.72;;;18.60;90.00;18.80;99465.00;;;;5011765;28;87296;-60
2022/08/22 01:32:27;;;;;;;9.05;4.10;;;18.60;90.30;18.80;99465.00;;;;5020083;28;87743;-60
2022/08/22 01:34:53;;;;;;;15.10;4.53;;;;;18.80;99459.00;;;;5018950;28;87638;-67
2022/08/22 01:37:29;;;;;;;8.85;3.50;;;;;18.70;99454.00;;;;5020166;28;87444;-67
2022/08/22 01:40:36;;;;;;;8.07;3.80;;;18.60;90.00;18.70;99452.00;;;;5020457;28;86866;-67
2022/08/22 01:43:48;;;;;;;6.65;3.70;;;18.60;90.20;18.80;99456.00;;;;4954900;28;89814;-67
2022/08/22 01:46:51;;;;;;;11.57;4.05;;;18.60;90.10;18.80;99452.00;;;;5017145;28;87458;-68
2022/08/22 01:49:33;;;;;;;6.53;3.42;;;18.50;90.30;18.70;99431.00;;;;5017171;28;87321;-66
2022/08/22 01:52:33;;;;;;;10.10;3.83;;;18.40;90.00;18.60;99432.00;;;;5020588;28;87161;-67
2022/08/22 01:55:06;;;;;;;13.20;3.80;;;18.40;90.20;18.60;99429.00;;;;5019832;28;89470;-66
2022/08/22 01:58:13;;;;;;;12.32;3.80;;;18.80;90.60;18.60;99434.00;;;;5019739;28;87510;-66
2022/08/22 02:01:12;;;;;;;9.10;3.90;;;18.40;90.10;18.60;99419.00;;;;5004179;28;87396;-67
2022/08/22 02:03:51;;;;;;;8.77;4.55;;;18.50;90.20;18.70;99434.00;;;;5011072;28;87002;-67
2022/08/22 02:06:32;;;;;;;9.90;4.22;;;18.40;90.60;18.70;99460.00;;;;5019155;28;88652;-67
2022/08/22 02:09:29;;;;;;;11.05;4.90;;;18.40;90.70;18.60;99457.00;;;;5014958;28;87207;-67
2022/08/22 02:12:13;;;;;;;8.82;4.85;;;18.30;91.00;18.50;99439.00;;;;5017553;28;87669;-67
2022/08/22 02:14:54;;;;;;;10.30;4.45;;;18.30;90.90;18.50;99441.00;;;;4991783;28;86660;-67
2022/08/22 02:17:30;;;;;;;12.52;4.13;;;18.30;90.90;18.50;99443.00;;;;5020037;28;87657;-66
2022/08/22 02:20:01;;;;;;;9.43;4.97;;;;;18.50;99430.00;;;;5019326;28;86971;-67
2022/08/22 02:22:49;;;;;;;9.20;4.38;;;18.40;90.60;18.60;99428.00;;;;5015930;28;88017;-67
2022/08/22 02:25:27;;;;;;;13.18;4.82;;;18.40;90.50;18.70;99436.00;;;;5013290;28;87050;-67
2022/08/22 02:28:11;;;;;;;10.73;4.90;;;18.50;90.50;18.70;99434.00;;;;5014954;28;87555;-66
2022/08/22 02:30:47;;;;;;;10.70;5.03;;;18.50;90.70;18.70;99428.00;;;;5012448;28;87470;-67
2022/08/22 02:33:51;;;;;;;14.25;5.10;;;18.50;91.40;18.80;99437.00;;;;5032872;28;88089;-67
2022/08/22 02:36:25;;;;;;;14.05;6.38;;;18.60;92.00;18.80;99437.00;;;;4919742;28;87639;-66
2022/08/22 02:39:26;;;;;;;12.68;5.75;;;18.50;92.20;18.70;99453.00;;;;5015347;28;88716;-66
2022/08/22 02:42:23;;;;;;;12.68;6.05;;;18.40;92.20;18.70;99452.00;;;;5017491;28;87391;-66
2022/08/22 02:45:17;;;;;;;16.00;7.68;;;18.50;92.30;18.60;99461.00;;;;5018974;28;87188;-67
2022/08/22 02:48:03;;;;;;;16.13;7.47;;;18.30;92.20;18.60;99442.00;;;;5018526;28;87422;-66
2022/08/22 02:50:43;;;;;;;14.23;8.05;;;18.40;92.20;18.60;99454.00;;;;5001795;28;88572;-67
2022/08/22 02:53:54;;;;;;;12.48;8.20;;;18.40;92.20;18.60;99453.00;;;;5018394;28;89385;-67
2022/08/22 02:56:33;;;;;;;19.87;11.03;;;18.40;91.80;18.60;99450.00;;;;5016527;28;88307;-66
2022/08/22 02:59:26;;;;;;;21.60;11.15;;;18.50;92.30;18.70;99454.00;;;;5010656;28;87205;-67
2022/08/22 03:01:54;;;;;;;22.17;10.98;;;18.40;92.20;18.70;99461.00;;;;5015871;28;87663;-67
2022/08/22 03:04:24;;;;;;;22.48;12.40;;;;;18.60;99461.00;;;;5015604;28;88543;-67
2022/08/22 03:07:31;;;;;;;22.08;14.75;;;18.50;91.90;18.70;99458.00;;;;5018595;28;87306;-67
2022/08/22 03:10:23;;;;;;;28.42;15.50;;;18.50;91.60;18.80;99461.00;;;;4991770;28;86518;-66
2022/08/22 03:13:06;;;;;;;25.88;15.32;;;18.60;92.10;18.80;99452.00;;;;5015041;28;88076;-67
2022/08/22 03:15:53;;;;;;;30.40;17.40;;;18.60;91.70;18.80;99465.00;;;;5002829;28;87298;-66
2022/08/22 03:18:52;;;;;;;29.98;19.60;;;18.60;91.70;18.80;99458.00;;;;5009579;28;88165;-66
2022/08/22 03:21:47;;;;;;;31.17;19.17;;;18.60;91.70;18.80;99460.00;;;;5008354;28;87787;-66
2022/08/22 03:24:47;;;;;;;36.38;21.90;;;18.60;91.70;18.80;99466.00;;;;4990242;28;87597;-66
2022/08/22 03:27:24;;;;;;;40.08;22.92;;;18.60;91.60;18.80;99469.00;;;;5016879;28;87651;-67
2022/08/22 03:29:59;;;;;;;33.88;24.10;;;18.60;91.50;18.80;99459.00;;;;5017234;28;86987;-68
2022/08/22 03:32:47;;;;;;;42.78;24.48;;;18.60;91.50;18.80;99466.00;;;;5018171;28;87333;-67
2022/08/22 03:35:33;;;;;;;46.13;27.52;;;18.60;91.60;18.80;99463.00;;;;4992310;28;88094;-67
2022/08/22 03:38:21;;;;;;;44.85;26.88;;;18.60;92.10;18.80;99467.00;;;;5018325;28;87316;-66
2022/08/22 03:41:11;;;;;;;45.70;28.65;;;18.60;91.90;18.80;99460.00;;;;5016649;28;87020;-66
2022/08/22 03:43:42;;;;;;;42.80;29.67;;;;;18.80;99454.00;;;;5015300;28;87330;-67
2022/08/22 03:46:38;;;;;;;49.70;30.55;;;18.60;91.90;18.80;99460.00;;;;5013394;28;88757;-67
2022/08/22 03:49:48;;;;;;;52.97;33.58;;;18.60;92.20;18.80;99454.00;;;;5017587;28;88800;-67
2022/08/22 03:53:08;;;;;;;50.35;29.92;;;18.60;92.10;18.80;99454.00;;;;5016873;28;87537;-66
2022/08/22 03:56:30;;;;;;;54.97;32.33;;;18.60;92.30;18.80;99461.00;;;;4979409;28;88054;-68
2022/08/22 03:59:19;;;;;;;53.67;34.72;;;18.60;92.30;18.80;99465.00;;;;4956763;28;87989;-67
2022/08/22 04:02:16;;;;;;;49.25;34.35;;;18.60;92.30;18.90;99465.00;;;;4977973;28;89224;-68
2022/08/22 04:05:47;;;;;;;52.47;34.08;;;18.60;92.30;18.90;99458.00;;;;4976080;28;87264;-67
2022/08/22 04:08:20;;;;;;;51.45;33.50;;;;;18.90;99454.00;;;;4962044;28;87248;-68
2022/08/22 04:11:20;;;;;;;55.58;34.38;;;18.70;92.20;19.00;99460.00;;;;4995880;28;87809;-67
2022/08/22 04:14:13;;;;;;;54.92;34.60;;;18.80;92.40;19.00;99462.00;;;;4978840;28;87648;-68
2022/08/22 04:17:24;;;;;;;57.38;35.50;;;18.90;92.20;19.20;99466.00;;;;4978889;28;88570;-67
2022/08/22 04:20:42;;;;;;;50.08;34.83;;;19.10;91.90;19.40;99472.00;;;;4977663;28;87352;-68
2022/08/22 04:23:43;;;;;;;56.80;36.38;;;19.10;92.00;19.40;99457.00;;;;4977406;28;87706;-67
2022/08/22 04:26:23;;;;;;;55.28;33.28;;;19.20;91.70;19.50;99465.00;;;;4989362;28;88293;-67
2022/08/22 04:29:24;;;;;;;56.83;37.13;;;18.90;91.50;19.50;99468.00;;;;4996294;28;87433;-67
2022/08/22 04:32:17;;;;;;;54.28;35.92;;;19.30;91.80;19.60;99479.00;;;;4996228;28;87489;-68
2022/08/22 04:35:32;;;;;;;71.65;36.78;;;19.40;91.90;19.70;99486.00;;;;4978164;28;90308;-67
2022/08/22 04:38:05;;;;;;;57.45;37.50;;;19.40;91.80;19.70;99476.00;;;;4957566;28;87532;-66
2022/08/22 04:40:53;;;;;;;63.03;36.80;;;19.50;92.00;19.80;99481.00;;;;4980437;28;87288;-67
2022/08/22 04:43:30;;;;;;;54.22;35.72;;;19.60;91.90;19.90;99469.00;;;;4995982;28;87197;-67
2022/08/22 04:46:14;;;;;;;51.72;33.60;;;19.70;91.60;20.00;99476.00;;;;4992818;28;88027;-66
2022/08/22 04:48:43;;;;;;;62.53;36.65;;;;;20.00;99479.00;;;;4995053;28;87255;-67
2022/08/22 04:51:30;;;;;;;54.28;33.50;;;19.80;91.90;20.10;99483.00;;;;4979015;28;87137;-67
2022/08/22 04:54:36;;;;;;;50.55;32.20;;;19.80;91.80;20.20;99470.00;;;;4974990;28;87914;-67
2022/08/22 04:57:46;;;;;;;48.13;31.08;;;19.90;92.00;20.20;99466.00;;;;4961103;28;88626;-67
2022/08/22 05:00:14;;;;;;;47.92;28.70;;;20.00;91.80;20.40;99460.00;;;;5011381;28;87342;-68
2022/08/22 05:02:48;;;;;;;50.63;29.63;;;20.10;91.50;20.50;99457.00;;;;5018495;28;87021;-67
2022/08/22 05:05:26;;;;;;;47.55;31.67;;;20.40;91.50;20.70;99455.00;;;;5019140;28;86605;-68
2022/08/22 05:07:58;;;;;;;48.47;30.83;;;20.50;91.10;20.80;99445.00;;;;4996180;28;88088;-68
2022/08/22 05:10:32;;;;;;;48.47;30.63;;;20.50;91.40;20.90;99448.00;;;;5001271;28;89856;-67
2022/08/22 05:13:07;;;;;;;42.15;30.02;;;20.70;91.70;21.10;99441.00;;;;5017532;28;88347;-67
2022/08/22 05:15:44;;;;;;;46.72;28.08;;;21.00;91.00;21.40;99444.00;;;;5020416;28;86985;-67
2022/08/22 05:18:28;;;;;;;49.53;31.38;;;21.30;90.60;21.80;99446.00;;;;5020295;28;87559;-67
2022/08/22 05:20:59;;;;;;;51.10;30.05;;;21.60;90.40;22.10;99442.00;;;;5019007;28;88684;-68
2022/08/22 05:23:45;;;;;;;43.10;27.20;;;21.60;90.40;22.00;99445.00;;;;4997393;28;87362;-68
2022/08/22 05:26:13;;;;;;;46.08;27.83;;;21.60;90.40;22.00;99440.00;;;;5002013;28;87445;-67
2022/08/22 05:28:44;;;;;;;45.63;29.00;;;;;22.00;99448.00;;;;5005559;28;88188;-67
2022/08/22 05:31:22;;;;;;;40.95;28.38;;;21.50;90.50;21.90;99450.00;;;;4996370;28;88504;-68
2022/08/22 05:33:55;;;;;;;44.75;28.88;;;21.60;90.60;22.00;99449.00;;;;5010698;28;87711;-68
2022/08/22 05:36:27;;;;;;;44.50;28.15;;;21.60;90.40;22.00;99447.00;;;;4989230;28;87052;-67
2022/08/22 05:38:59;;;;;;;;;;;21.60;90.70;22.00;99451.00;;;;4994661;28;89611;-66
2022/08/22 05:41:33;;;;;;;42.13;26.80;;;21.80;90.10;22.20;99445.00;;;;4994191;28;88215;-67
2022/08/22 05:44:00;;;;;;;40.30;26.20;;;;;22.20;99450.00;;;;5011727;28;87273;-67
2022/08/22 05:46:49;;;;;;;39.15;26.30;;;21.80;90.30;22.30;99468.00;;;;5005424;28;88730;-66
2022/08/22 05:49:18;;;;;;;47.08;24.73;;;;;22.30;99456.00;;;;5012539;28;87567;-68
2022/08/22 05:52:05;;;;;;;42.30;25.65;;;22.00;90.20;22.40;99464.00;;;;5018765;28;87833;-67
2022/08/22 05:54:43;;;;;;;41.10;26.13;;;22.10;90.20;22.50;99480.00;;;;5019338;28;88111;-67
2022/08/22 05:57:37;;;;;;;46.40;26.67;;;22.20;90.30;22.60;99465.00;;;;5019476;28;86347;-67
2022/08/22 06:00:17;;;;;;;45.45;26.77;;;22.10;90.30;22.60;99463.00;;;;5009999;28;87979;-66
2022/08/22 06:03:35;;;;;;;46.90;24.65;;;22.00;90.10;22.40;99457.00;;;;4996844;28;89731;-66
2022/08/22 06:06:13;;;;;;;41.92;25.70;;;21.90;90.20;22.30;99460.00;;;;5014389;28;88494;-67
2022/08/22 06:08:45;;;;;;;42.33;26.52;;;21.90;90.30;22.30;99459.00;;;;4988159;28;87224;-66
2022/08/22 06:11:20;;;;;;;43.33;26.50;;;21.90;90.20;22.30;99466.00;;;;4987221;28;88890;-67
2022/08/22 06:14:15;;;;;;;38.45;25.08;;;21.90;90.30;22.30;99460.00;;;;5016870;28;89120;-68
2022/08/22 06:16:56;;;;;;;39.88;25.80;;;22.00;90.40;22.40;99468.00;;;;5008007;28;87069;-61
2022/08/22 06:19:23;;;;;;;39.35;25.20;;;22.30;90.70;22.60;99470.00;;;;5018571;28;87107;-61
2022/08/22 06:21:52;;;;;;;41.13;25.30;;;22.50;90.30;22.90;99465.00;;;;5017263;28;88556;-61
2022/08/22 06:24:25;;;;;;;43.10;26.83;;;22.70;90.30;23.10;99475.00;;;;5013753;28;88686;-61
2022/08/22 06:26:56;;;;;;;39.08;23.40;;;22.70;89.80;23.10;99469.00;;;;5014851;28;87028;-61
2022/08/22 06:29:35;;;;;;;;;;;22.70;90.20;23.00;99469.00;;;;5018955;28;87618;-59
2022/08/22 06:32:12;;;;;;;40.20;25.73;;;22.70;90.00;23.20;99480.00;;;;5018270;28;89396;-59
2022/08/22 06:34:42;;;;;;;42.55;26.33;;;22.90;90.00;23.30;99495.00;;;;5015087;28;88455;-59
2022/08/22 06:37:16;;;;;;;41.30;25.30;;;22.90;90.00;23.40;99477.00;;;;5016364;28;87318;-63
2022/08/22 06:39:47;;;;;;;44.33;27.42;;;22.70;90.10;23.20;99481.00;;;;4983668;28;87755;-64
2022/08/22 06:42:31;;;;;;;42.53;26.15;;;22.60;90.50;23.00;99475.00;;;;5014378;28;89035;-63
2022/08/22 06:45:11;;;;;;;40.92;26.33;;;22.50;90.50;22.90;99492.00;;;;5016846;28;87598;-64
2022/08/22 06:47:47;;;;;;;38.50;25.60;;;22.40;90.80;22.80;99491.00;;;;5017581;28;87119;-64
2022/08/22 06:50:38;;;;;;;40.15;25.70;;;22.40;91.20;22.70;99481.00;;;;4997573;28;86234;-64
2022/08/22 06:53:25;;;;;;;37.73;25.00;;;22.60;90.90;23.00;99483.00;;;;5018144;28;88592;-64
2022/08/22 06:56:01;;;;;;;37.53;24.92;;;22.90;90.90;23.30;99489.00;;;;5017813;28;87199;-64
2022/08/22 06:58:35;;;;;;;42.38;26.35;;;23.40;90.50;23.70;99486.00;;;;5016306;28;88543;-64
2022/08/22 07:01:12;;;;;;;38.60;26.38;;;23.60;90.20;24.00;99487.00;;;;5016026;28;87197;-64
2022/08/22 07:03:53;;;;;;;35.65;23.52;;;23.70;90.00;24.10;99477.00;;;;5010473;28;88059;-63
2022/08/22 07:06:41;;;;;;;39.92;25.33;;;23.60;90.30;24.00;99477.00;;;;4994747;28;87514;-64
2022/08/22 07:09:22;;;;;;;42.58;23.88;;;23.60;90.10;23.90;99466.00;;;;5009780;28;87444;-64
2022/08/22 07:11:51;;;;;;;39.17;23.60;;;23.70;90.20;23.90;99475.00;;;;4997973;28;87025;-64
2022/08/22 07:14:31;;;;;;;38.30;24.30;;;23.80;90.30;24.10;99476.00;;;;4990807;28;87808;-64
2022/08/22 07:17:02;;;;;;;42.90;25.47;;;23.80;90.20;24.10;99482.00;;;;5018436;28;87774;-63
2022/08/22 07:19:31;;;;;;;40.20;22.95;;;;;24.10;99487.00;;;;5016861;28;87595;-64
2022/08/22 07:22:00;;;;;;;41.28;24.70;;;23.80;90.50;24.10;99487.00;;;;4999117;28;87358;-63
2022/08/22 07:24:30;;;;;;;44.42;23.35;;;23.90;90.30;24.20;99483.00;;;;5015352;28;89546;-63
2022/08/22 07:27:04;;;;;;;31.10;22.33;;;;;24.30;99488.00;;;;5013199;28;89564;-64
2022/08/22 07:29:57;;;;;;;35.40;23.15;;;24.20;90.20;24.40;99487.00;;;;5012631;28;87492;-64
2022/08/22 07:32:50;;;;;;;37.45;24.08;;;24.20;90.10;24.50;99487.00;;;;5020628;28;87041;-64
2022/08/22 07:35:29;;;;;;;42.45;22.58;;;24.30;89.60;24.60;99489.00;;;;5005938;28;88696;-64
2022/08/22 07:38:00;;;;;;;36.20;23.05;;;24.40;89.00;24.70;99493.00;;;;5015565;28;87889;-64
2022/08/22 07:40:30;;;;;;;42.60;23.23;;;;;24.60;99477.00;;;;5013788;28;87558;-65
2022/08/22 07:43:03;;;;;;;32.83;23.20;;;24.20;90.00;24.50;99484.00;;;;5021690;28;86706;-64
2022/08/22 07:45:53;;;;;;;37.33;24.23;;;24.20;90.00;24.50;99491.00;;;;5010010;28;88679;-64
2022/08/22 07:48:35;;;;;;;40.20;23.92;;;24.10;89.60;24.50;99489.00;;;;5019939;28;87719;-64
2022/08/22 07:51:26;;;;;;;41.63;24.83;;;24.00;89.50;24.30;99486.00;;;;5019853;28;88438;-64
2022/08/22 07:54:00;;;;;;;37.42;23.52;;;24.00;89.90;24.30;99483.00;;;;5019392;28;87176;-65
2022/08/22 07:56:45;;;;;;;34.85;22.60;;;24.00;90.20;24.40;99481.00;;;;5020246;28;87572;-64
2022/08/22 07:59:18;;;;;;;43.05;21.95;;;24.30;90.30;24.60;99495.00;;;;5002430;28;88690;-64
2022/08/22 08:01:52;;;;;;;34.67;22.38;;;24.30;90.30;24.70;99482.00;;;;5002043;28;87881;-65
2022/08/22 08:04:24;;;;;;;35.60;23.77;;;24.30;89.40;24.60;99489.00;;;;5008830;28;87364;-64
2022/08/22 08:06:58;;;;;;;39.20;25.58;;;24.30;89.20;24.60;99485.00;;;;5012977;28;87499;-64
2022/08/22 08:09:31;;;;;;;37.88;25.20;;;24.30;90.00;24.60;99485.00;;;;5021093;28;87462;-64
2022/08/22 08:12:01;;;;;;;41.95;24.35;;;24.40;89.40;24.70;99483.00;;;;5018352;28;86989;-64
2022/08/22 08:14:28;;;;;;;42.58;24.30;;;24.60;88.60;24.90;99491.00;;;;5019538;28;86984;-64
2022/08/22 08:17:09;;;;;;;41.25;26.33;;;24.70;89.70;25.00;99489.00;;;;5020117;28;88916;-65
2022/08/22 08:19:39;;;;;;;44.13;25.77;;;24.90;89.90;25.20;99486.00;;;;5021047;28;88684;-64
2022/08/22 08:22:06;;;;;;;42.37;25.07;;;25.10;90.00;25.40;99489.00;;;;5019135;28;87013;-64
2022/08/22 08:24:39;;;;;;;37.63;26.90;;;25.30;90.00;25.60;99484.00;;;;5018831;28;87711;-65
2022/08/22 08:30:45;;;;;;;49.47;27.73;;;25.40;88.20;25.80;99479.00;;;;4994059;28;87687;-64
2022/08/22 08:33:22;;;;;;;39.10;25.58;;;25.50;87.10;25.80;99483.00;;;;5006977;28;87242;-64
2022/08/22 08:36:15;;;;;;;43.08;26.13;;;25.50;87.60;25.90;99484.00;;;;5018777;28;86811;-64
2022/08/22 08:39:11;;;;;;;49.92;24.42;;;25.60;85.80;25.90;99489.00;;;;5007090;28;87560;-65
2022/08/22 08:41:43;;;;;;;49.10;25.90;;;25.60;87.00;25.90;99492.00;;;;5020084;28;87549;-64
2022/08/22 08:44:44;;;;;;;46.22;27.25;;;25.60;87.20;26.00;99489.00;;;;5018845;28;88406;-65
2022/08/22 08:47:37;;;;;;;44.47;27.23;;;25.70;87.30;26.10;99493.00;;;;4989819;28;87154;-64
2022/08/22 08:50:33;;;;;;;39.97;25.58;;;25.90;86.10;26.20;99491.00;;;;5019509;28;87829;-65
2022/08/22 08:53:26;;;;;;;39.08;23.88;;;25.90;85.50;26.30;99494.00;;;;5020577;28;88567;-64
2022/08/22 08:55:57;;;;;;;33.65;22.48;;;;;26.30;99486.00;;;;5020070;28;87128;-65
2022/08/22 08:58:55;;;;;;;43.70;22.83;;;26.10;85.00;26.50;99487.00;;;;5019817;28;87024;-65
2022/08/22 09:01:46;;;;;;;41.70;25.70;;;26.40;85.00;26.70;99496.00;;;;4999099;28;91401;-65
2022/08/22 09:04:20;;;;;;;40.55;24.15;;;;;26.90;99496.00;;;;5018985;28;88861;-64
2022/08/22 09:07:06;;;;;;;39.60;21.92;;;26.60;84.60;27.00;99502.00;;;;5002068;28;87341;-65
2022/08/22 09:09:58;;;;;;;44.78;25.17;;;26.60;84.10;27.00;99506.00;;;;5019763;28;87368;-65
2022/08/22 09:13:03;;;;;;;35.00;22.08;;;26.40;84.20;26.80;99506.00;;;;5015703;28;90177;-65
2022/08/22 09:15:50;;;;;;;33.72;20.13;;;26.30;83.90;26.80;99509.00;;;;5014401;28;89544;-65
2022/08/22 09:18:28;;;;;;;29.98;20.92;;;26.30;83.90;26.80;99502.00;;;;5013833;28;87431;-65
2022/08/22 09:21:14;;;;;;;34.45;19.75;;;;;26.90;99510.00;;;;5014019;28;87250;-65
2022/08/22 09:24:31;;;;;;;38.50;21.10;;;26.80;83.80;27.40;99514.00;;;;5012902;28;87552;-65
2022/08/22 09:27:07;;;;;;;34.03;22.10;;;27.20;83.20;27.70;99510.00;;;;4950194;28;88492;-64
2022/08/22 09:29:43;;;;;;;38.10;22.45;;;27.40;83.00;27.90;99515.00;;;;4956333;28;87680;-64
2022/08/22 09:32:33;;;;;;;35.00;22.67;;;27.50;82.10;28.10;99512.00;;;;4984794;28;86623;-64
2022/08/22 09:35:29;;;;;;;42.30;25.15;;;27.60;83.20;28.10;99512.00;;;;5016734;28;88794;-64
2022/08/22 09:38:15;;;;;;;40.80;25.63;;;27.70;83.50;28.10;99504.00;;;;5015057;28;88069;-64
2022/08/22 09:41:13;;;;;;;45.13;24.48;;;27.70;83.20;28.20;99501.00;;;;5019252;28;87914;-64
2022/08/22 09:43:45;;;;;;;35.60;22.35;;;;;28.30;99507.00;;;;4996321;28;87506;-64
2022/08/22 09:46:25;;;;;;;32.70;20.65;;;27.70;81.70;28.20;99505.00;;;;5017844;28;87633;-64
2022/08/22 09:49:14;;;;;;;32.17;20.80;;;27.70;82.30;28.10;99515.00;;;;5018875;28;87767;-64
2022/08/22 09:52:22;;;;;;;41.70;20.83;;;27.80;82.80;28.20;99506.00;;;;5017994;28;87551;-64
2022/08/22 09:55:05;;;;;;;33.15;18.30;;;27.80;82.70;28.30;99506.00;;;;5019759;28;87480;-64
2022/08/22 09:57:38;;;;;;;28.70;17.08;;;27.90;81.90;28.30;99506.00;;;;5002436;28;87556;-65
2022/08/22 10:00:05;;;;;;;21.08;13.20;;;;;28.10;99508.00;;;;5009940;28;87560;-65
2022/08/22 10:02:33;;;;;;;19.33;11.48;;;;;28.20;99497.00;;;;5018735;28;87140;-65
2022/08/22 10:05:12;;;;;;;17.05;10.98;;;27.80;81.00;28.20;99505.00;;;;5019222;28;87392;-65
2022/08/22 10:07:53;;;;;;;19.17;7.97;;;27.70;80.30;28.20;99499.00;;;;5014493;28;88509;-65
2022/08/22 10:10:52;;;;;;;;;;;27.70;81.00;28.20;99494.00;;;;5016625;28;88076;-65
2022/08/22 10:13:37;;;;;;;14.13;5.53;;;;;28.10;99506.00;;;;5020375;28;86938;-64
2022/08/22 10:16:25;;;;;;;11.02;6.50;;;27.80;80.10;28.10;99502.00;;;;4986759;28;86998;-64
2022/08/22 10:18:52;;;;;;;15.73;7.88;;;;;28.10;99506.00;;;;5015690;28;88465;-64
2022/08/22 10:21:48;;;;;;;14.43;5.90;;;27.80;80.70;28.10;99503.00;;;;5019446;28;87519;-63
2022/08/22 10:24:36;;;;;;;17.50;5.90;;;28.00;79.50;28.30;99494.00;;;;5001488;28;86995;-64
2022/08/22 10:27:14;;;;;;;11.30;5.28;;;28.00;79.70;28.40;99508.00;;;;4997656;28;86464;-65
2022/08/22 10:29:55;;;;;;;21.35;6.43;;;28.10;78.30;28.40;99505.00;;;;5006921;28;87797;-65
2022/08/22 10:32:26;;;;;;;16.48;6.07;;;28.00;78.10;28.30;99500.00;;;;5019276;28;87890;-65
2022/08/22 10:35:01;;;;;;;20.40;5.65;;;28.00;77.80;28.40;99489.00;;;;5019572;28;88309;-65
2022/08/22 10:37:40;;;;;;;16.75;5.10;;;;;28.40;99490.00;;;;4993191;28;87045;-65
2022/08/22 10:40:29;;;;;;;18.85;4.90;;;28.00;77.60;28.40;99493.00;;;;5018173;28;87644;-65
2022/08/22 10:43:12;;;;;;;10.52;4.80;;;28.00;78.40;28.40;99498.00;;;;5017974;28;89012;-65
2022/08/22 10:45:46;;;;;;;14.18;4.95;;;28.10;78.40;28.50;99494.00;;;;4998117;28;86941;-65
2022/08/22 10:48:46;;;;;;;8.05;3.80;;;28.20;77.30;28.60;99486.00;;;;5013209;28;87171;-65
2022/08/22 10:51:33;;;;;;;12.77;4.13;;;28.30;76.10;28.70;99487.00;;;;5018049;28;88453;-65
2022/08/22 10:54:25;;;;;;;6.40;3.13;;;28.20;74.80;28.60;99483.00;;;;5014221;28;88470;-63
2022/08/22 10:57:15;;;;;;;9.57;3.35;;;28.30;74.60;28.60;99488.00;;;;5014801;28;87039;-64
2022/08/22 11:00:07;;;;;;;11.27;2.80;;;28.40;74.20;28.70;99493.00;;;;5018249;28;87462;-65
2022/08/22 11:02:38;;;;;;;16.73;3.15;;;28.30;74.50;28.70;99490.00;;;;5029479;28;89927;-63
2022/08/22 11:05:24;;;;;;;10.38;2.72;;;28.40;74.50;28.80;99489.00;;;;5018685;28;88207;-64
2022/08/22 11:08:36;;;;;;;7.38;2.90;;;28.40;74.80;28.80;99490.00;;;;5011953;28;87293;-64
2022/08/22 11:11:56;;;;;;;7.85;2.83;;;28.40;74.40;28.80;99484.00;;;;5012517;28;87725;-63
2022/08/22 11:14:23;;;;;;;9.25;3.08;;;;;28.80;99486.00;;;;4995942;28;89122;-64
2022/08/22 11:17:14;;;;;;;11.43;2.80;;;28.50;74.40;28.90;99491.00;;;;5013270;28;87477;-63
2022/08/22 11:20:08;;;;;;;14.73;3.55;;;28.50;73.70;28.90;99497.00;;;;5019175;28;87004;-64
2022/08/22 11:22:55;;;;;;;26.05;4.60;;;28.50;73.00;29.00;99487.00;;;;5019317;28;86158;-64
2022/08/22 11:25:50;;;;;;;19.23;3.38;;;28.60;72.90;29.00;99475.00;;;;5017458;28;87626;-64
2022/08/22 11:28:37;;;;;;;5.47;2.83;;;28.80;74.30;29.10;99467.00;;;;4998160;28;89934;-64
2022/08/22 11:31:28;;;;;;;17.50;3.03;;;28.70;72.30;29.20;99475.00;;;;5012585;28;87957;-64
2022/08/22 11:34:37;;;;;;;10.68;3.08;;;28.70;71.80;29.10;99490.00;;;;5026391;28;87929;-64
2022/08/22 11:37:18;;;;;;;8.13;2.60;;;28.70;70.90;29.10;99475.00;;;;5015129;28;88963;-64
2022/08/22 11:40:23;;;;;;;9.57;2.50;;;28.70;71.70;29.20;99485.00;;;;5000962;28;88501;-64
2022/08/22 11:43:06;;;;;;;7.13;2.58;;;28.80;70.90;29.20;99477.00;;;;5017692;28;87428;-63
2022/08/22 11:45:47;;;;;;;8.73;2.60;;;28.90;71.50;29.30;99476.00;;;;5016957;28;87571;-63
2022/08/22 11:48:52;;;;;;;8.80;2.83;;;28.90;71.60;29.40;99478.00;;;;5011707;28;88694;-64
2022/08/22 11:51:54;;;;;;;9.30;2.25;;;29.00;72.30;29.40;99467.00;;;;5018147;28;87055;-64
2022/08/22 11:54:35;;;;;;;6.72;2.47;;;28.90;70.30;29.40;99469.00;;;;5018101;28;87235;-63
2022/08/22 11:57:40;;;;;;;12.07;3.00;;;28.80;70.30;29.20;99472.00;;;;5017451;28;87079;-64
2022/08/22 12:00:15;;;;;;;6.97;2.15;;;28.60;70.20;29.10;99474.00;;;;5012293;28;88930;-64
2022/08/22 12:03:14;;;;;;;5.03;2.00;;;28.60;70.30;29.00;99469.00;;;;5016268;28;89446;-64
2022/08/22 12:06:23;;;;;;;6.00;2.42;;;28.50;70.30;29.00;99480.00;;;;5015156;28;87362;-64
2022/08/22 12:09:40;;;;;;;5.35;2.30;;;28.40;71.10;28.90;99485.00;;;;5017613;28;86995;-65
2022/08/22 12:12:34;;;;;;;9.10;2.30;;;28.40;70.70;28.90;99479.00;;;;5018344;28;87607;-64
2022/08/22 12:15:22;;;;;;;6.10;2.22;;;28.30;71.50;28.80;99470.00;;;;5014473;28;88232;-63
2022/08/22 12:18:37;;;;;;;6.13;2.03;;;28.30;71.10;28.70;99477.00;;;;5021723;28;87425;-64
2022/08/22 12:21:40;;;;;;;8.38;2.38;;;28.30;71.70;28.70;99473.00;;;;5022638;28;86668;-64
2022/08/22 12:24:33;;;;;;;9.32;2.35;;;28.30;72.10;28.70;99474.00;;;;5017577;28;87906;-64